Time;durP1;ratioP1;P1;durP2;ratioP2;P2;SDS_P1;SDS_P2;PMS_P1;PMS_P2;Temp;Humidity;BMP_temperature;BMP_pressure;BME280_temperature;BME280_humidity;BME280_pressure;Samples;Min_cycle;Max_cycle;Signal;HPM_P1;HPM_P2
2022/10/26 00:00:36;;;;;;;;;;;;;;;10.82;100.00;101325.19;5017720;28;20003;-46
2022/10/26 00:03:01;;;;;;;;;;;;;;;10.83;100.00;101332.22;5035861;28;20020;-44
2022/10/26 00:05:26;;;;;;;;;;;;;;;10.83;100.00;101325.03;5023766;28;20339;-45
2022/10/26 00:07:51;;;;;;;;;;;;;;;10.85;100.00;101321.41;5034820;28;19921;-43
2022/10/26 00:10:16;;;;;;;;;;;;;;;10.85;100.00;101316.06;5034623;28;19952;-44
2022/10/26 00:12:42;;;;;;;;;;;;;;;10.83;100.00;101316.19;5025485;28;20042;-42
2022/10/26 00:15:07;;;;;;;;;;;;;;;10.84;100.00;101309.84;5035605;28;20109;-44
2022/10/26 00:17:33;;;;;;;;;;;;;;;10.85;100.00;101306.19;5017536;28;19920;-43
2022/10/26 00:19:59;;;;;;;;;;;;;;;10.85;100.00;101300.84;5034704;28;19938;-44
2022/10/26 00:22:24;;;;;;;;;;;;;;;10.86;100.00;101299.84;5036036;28;19948;-43
2022/10/26 00:24:50;;;;;;;;;;;;;;;10.86;100.00;101291.81;5032221;28;19948;-43
2022/10/26 00:27:15;;;;;;;;;;;;;;;10.88;100.00;101289.00;5026107;28;19975;-44
2022/10/26 00:29:40;;;;;;;;;;;;;;;10.89;100.00;101282.69;5035514;28;19952;-43
2022/10/26 00:32:05;;;;;;;;;;;;;;;10.93;100.00;101286.72;5036229;28;19996;-43
2022/10/26 00:34:31;;;;;;;;;;;;;;;10.96;100.00;101286.41;5028250;28;20099;-44
2022/10/26 00:36:56;;;;;;;;;;;;;;;10.97;100.00;101288.09;5031103;28;19921;-45
2022/10/26 00:39:21;;;;;;;;;;;;;;;11.00;100.00;101287.81;5036170;28;20466;-42
2022/10/26 00:41:46;;;;;;;;;;;;;;;11.02;100.00;101283.13;5031163;28;20441;-44
2022/10/26 00:44:30;;;;;;;;;;;;;;;11.05;100.00;101280.16;5031701;28;20435;-45
2022/10/26 00:46:55;;;;;;;;;;;;;;;11.07;100.00;101275.50;5031401;28;19958;-47
2022/10/26 00:49:20;;;;;;;;;;;;;;;11.08;100.00;101271.81;5031001;28;19925;-45
2022/10/26 00:51:50;;;;;;;;;;;;;;;11.09;100.00;101261.97;5031377;28;20627;-47
2022/10/26 00:54:19;;;;;;;;;;;;;;;11.11;100.00;101276.03;5031586;28;19917;-44
2022/10/26 00:56:46;;;;;;;;;;;;;;;11.12;100.00;101291.09;5030542;28;19940;-43
2022/10/26 00:59:12;;;;;;;;;;;;;;;11.13;100.00;101290.06;5016385;28;19917;-44
2022/10/26 01:01:39;;;;;;;;;;;;;;;11.14;100.00;101289.09;5035170;28;19974;-46
2022/10/26 01:04:05;;;;;;;;;;;;;;;11.18;100.00;101302.00;5034893;28;19924;-43
2022/10/26 01:06:30;;;;;;;;;;;;;;;11.20;100.00;101292.00;5033278;28;20389;-45
2022/10/26 01:08:56;;;;;;;;;;;;;;;11.22;100.00;101289.16;5036002;28;20067;-44
2022/10/26 01:11:21;;;;;;;;;;;;;;;11.23;100.00;101280.13;5034059;28;20043;-44
2022/10/26 01:13:47;;;;;;;;;;;;;;;11.26;100.00;101276.31;5035213;28;20130;-43
2022/10/26 01:16:32;;;;;;;;;;;;;;;11.27;100.00;101280.66;5034190;28;20398;-46
2022/10/26 01:19:18;;;;;;;;;;;;;;;11.28;100.00;101261.78;5034964;28;19941;-43
2022/10/26 01:21:55;;;;;;;;;;;;;;;11.27;100.00;101262.81;5012149;28;19916;-43
2022/10/26 01:24:39;;;;;;;;;;;;;;;11.25;100.00;101259.41;5036273;28;20944;-42
2022/10/26 01:27:17;;;;;;;;;;;;;;;11.24;100.00;101252.41;5034476;28;19982;-45
2022/10/26 01:29:42;;;;;;;;;;;;;;;11.23;100.00;101250.72;5035912;28;19924;-43
2022/10/26 01:32:13;;;;;;;;;;;;;;;11.23;100.00;101257.91;5038771;28;19978;-44
2022/10/26 01:34:43;;;;;;;;;;;;;;;11.22;100.00;101259.75;5037076;28;19917;-43
2022/10/26 01:37:14;;;;;;;;;;;;;;;11.20;100.00;101251.03;5034396;28;20076;-44
2022/10/26 01:39:48;;;;;;;;;;;;;;;11.19;100.00;101250.19;5033268;28;20138;-47
2022/10/26 01:42:15;;;;;;;;;;;;;;;11.21;100.00;101255.38;5035271;28;19917;-45
2022/10/26 01:44:46;;;;;;;;;;;;;;;11.24;100.00;101246.22;5037755;28;20030;-45
2022/10/26 01:47:13;;;;;;;;;;;;;;;11.25;100.00;101238.03;5026045;28;20438;-43
2022/10/26 01:49:41;;;;;;;;;;;;;;;11.24;100.00;101241.72;5036751;28;19923;-45
2022/10/26 01:52:09;;;;;;;;;;;;;;;11.24;100.00;101231.03;5036283;28;20007;-43
2022/10/26 01:54:35;;;;;;;;;;;;;;;11.25;100.00;101229.19;5026223;28;19919;-43
2022/10/26 01:57:02;;;;;;;;;;;;;;;11.26;100.00;101226.34;5037554;28;20287;-43
2022/10/26 01:59:36;;;;;;;;;;;;;;;11.26;100.00;101228.19;5038515;28;19917;-42
2022/10/26 02:02:02;;;;;;;;;;;;;;;11.26;100.00;101222.84;5038139;28;20063;-47
2022/10/26 02:04:42;;;;;;;;;;;;;;;11.25;100.00;101221.16;5038294;28;20015;-42
2022/10/26 02:07:19;;;;;;;;;;;;;;;11.24;100.00;101214.97;5038570;28;20386;-44
2022/10/26 02:09:49;;;;;;;;;;;;;;;11.23;100.00;101220.47;5024920;28;20403;-46
2022/10/26 02:12:20;;;;;;;;;;;;;;;11.19;100.00;101211.94;5036026;28;19971;-44
2022/10/26 02:14:45;;;;;;;;;;;;;;;11.15;100.00;101215.91;5026177;28;19917;-46
2022/10/26 02:17:17;;;;;;;;;;;;;;;11.10;100.00;101221.72;5037940;28;19913;-45
2022/10/26 02:19:52;;;;;;;;;;;;;;;11.05;100.00;101221.38;5036687;28;19917;-46
2022/10/26 02:22:23;;;;;;;;;;;;;;;11.00;100.00;101221.81;5036617;28;19994;-44
2022/10/26 02:24:50;;;;;;;;;;;;;;;10.99;100.00;101224.63;5033064;28;20019;-44
2022/10/26 02:27:19;;;;;;;;;;;;;;;10.95;100.00;101224.13;5028490;28;20205;-45
2022/10/26 02:29:46;;;;;;;;;;;;;;;10.94;100.00;101226.94;5037118;28;19912;-47
2022/10/26 02:32:12;;;;;;;;;;;;;;;10.92;100.00;101219.06;5019055;28;19919;-45
2022/10/26 02:34:39;;;;;;;;;;;;;;;10.93;100.00;101214.56;5018176;28;20275;-41
2022/10/26 02:37:04;;;;;;;;;;;;;;;10.95;100.00;101207.25;5019095;28;19924;-42
2022/10/26 02:39:32;;;;;;;;;;;;;;;10.95;100.00;101209.91;5037139;28;20595;-43
2022/10/26 02:41:59;;;;;;;;;;;;;;;10.97;100.00;101203.41;5035752;28;19912;-43
2022/10/26 02:44:26;;;;;;;;;;;;;;;10.99;100.00;101205.94;5037015;28;20349;-46
2022/10/26 02:46:52;;;;;;;;;;;;;;;11.01;100.00;101199.47;5035671;28;19923;-43
2022/10/26 02:49:17;;;;;;;;;;;;;;;11.03;100.00;101201.94;5029572;28;19917;-45
2022/10/26 02:51:48;;;;;;;;;;;;;;;11.03;100.00;101193.94;5036493;28;20038;-45
2022/10/26 02:54:31;;;;;;;;;;;;;;;11.05;100.00;101191.09;5036795;28;20337;-43
2022/10/26 02:56:58;;;;;;;;;;;;;;;11.02;100.00;101190.41;5029217;28;20339;-45
2022/10/26 02:59:26;;;;;;;;;;;;;;;11.02;100.00;101190.41;5036712;28;19956;-48
2022/10/26 03:01:52;;;;;;;;;;;;;;;11.04;100.00;101192.13;5035149;28;19994;-45
2022/10/26 03:04:17;;;;;;;;;;;;;;;11.03;100.00;101185.91;5036648;28;20370;-44
2022/10/26 03:06:50;;;;;;;;;;;;;;;11.05;100.00;101193.78;5035901;28;20144;-43
2022/10/26 03:09:16;;;;;;;;;;;;;;;11.05;100.00;101191.09;5037264;28;20342;-47
2022/10/26 03:11:41;;;;;;;;;;;;;;;11.05;100.00;101189.28;5034686;28;19921;-43
2022/10/26 03:14:06;;;;;;;;;;;;;;;11.06;100.00;101190.94;5016339;28;20012;-45
2022/10/26 03:16:31;;;;;;;;;;;;;;;11.08;100.00;101190.78;5030863;28;20007;-42
2022/10/26 03:18:56;;;;;;;;;;;;;;;11.08;100.00;101186.28;5034336;28;19943;-43
2022/10/26 03:21:21;;;;;;;;;;;;;;;11.11;100.00;101185.97;5025886;28;19925;-47
2022/10/26 03:23:49;;;;;;;;;;;;;;;11.10;100.00;101181.63;5034780;28;20813;-47
2022/10/26 03:26:14;;;;;;;;;;;;;;;11.13;100.00;101186.69;5034322;28;20027;-42
2022/10/26 03:28:39;;;;;;;;;;;;;;;11.14;100.00;101187.50;5022425;28;20471;-46
2022/10/26 03:31:05;;;;;;;;;;;;;;;11.14;100.00;101185.66;5035910;28;19916;-44
2022/10/26 03:33:30;;;;;;;;;;;;;;;11.18;100.00;101180.84;5035815;28;20042;-45
2022/10/26 03:35:55;;;;;;;;;;;;;;;11.19;100.00;101188.72;5035077;28;19921;-43
2022/10/26 03:38:21;;;;;;;;;;;;;;;11.19;100.00;101179.84;5036609;28;20565;-44
2022/10/26 03:40:47;;;;;;;;;;;;;;;11.21;100.00;101177.84;5034153;28;19920;-45
2022/10/26 03:43:12;;;;;;;;;;;;;;;11.22;100.00;101184.03;5036339;28;20090;-46
2022/10/26 03:45:37;;;;;;;;;;;;;;;11.21;100.00;101172.50;5018101;28;19921;-44
2022/10/26 03:48:03;;;;;;;;;;;;;;;11.22;100.00;101184.03;5028872;28;19913;-46
2022/10/26 03:50:28;;;;;;;;;;;;;;;11.21;100.00;101167.16;5026575;28;19975;-45
2022/10/26 03:52:53;;;;;;;;;;;;;;;11.23;100.00;101169.69;5035610;28;19919;-45
2022/10/26 03:55:18;;;;;;;;;;;;;;;11.23;100.00;101170.50;5034381;28;19913;-44
2022/10/26 03:57:44;;;;;;;;;;;;;;;11.24;100.00;101174.88;5036655;28;19917;-44
2022/10/26 04:00:10;;;;;;;;;;;;;;;11.22;100.00;101168.00;5029751;28;20350;-43
2022/10/26 04:02:36;;;;;;;;;;;;;;;11.19;100.00;101172.66;5034890;28;20419;-44
2022/10/26 04:05:01;;;;;;;;;;;;;;;11.17;100.00;101168.50;5025012;28;20008;-47
2022/10/26 04:07:26;;;;;;;;;;;;;;;11.14;100.00;101177.66;5035949;28;20016;-42
2022/10/26 04:09:51;;;;;;;;;;;;;;;11.09;100.00;101174.59;5033757;28;20357;-44
2022/10/26 04:12:16;;;;;;;;;;;;;;;11.08;100.00;101182.78;5035677;28;19920;-47
2022/10/26 04:14:42;;;;;;;;;;;;;;;11.07;100.00;101186.47;5034482;28;20188;-46
2022/10/26 04:17:07;;;;;;;;;;;;;;;11.03;100.00;101175.22;5035203;28;19916;-47
2022/10/26 04:19:32;;;;;;;;;;;;;;;11.01;100.00;101179.88;5035242;28;20037;-43
2022/10/26 04:21:57;;;;;;;;;;;;;;;11.02;100.00;101178.91;5034528;28;20430;-47
2022/10/26 04:24:22;;;;;;;;;;;;;;;11.02;100.00;101177.06;5031981;28;20023;-46
2022/10/26 04:26:47;;;;;;;;;;;;;;;11.02;100.00;101173.56;5024673;28;20287;-46
2022/10/26 04:29:13;;;;;;;;;;;;;;;11.00;100.00;101175.56;5033187;28;20023;-44
2022/10/26 04:31:38;;;;;;;;;;;;;;;11.02;100.00;101171.72;5031867;28;19940;-47
2022/10/26 04:34:03;;;;;;;;;;;;;;;11.05;100.00;101169.72;5014070;28;19917;-43
2022/10/26 04:36:29;;;;;;;;;;;;;;;11.06;100.00;101158.88;5033072;28;19917;-44
2022/10/26 04:38:54;;;;;;;;;;;;;;;11.08;100.00;101156.88;5035019;28;19982;-43
2022/10/26 04:41:19;;;;;;;;;;;;;;;11.10;100.00;101157.59;5034053;28;19920;-45
2022/10/26 04:43:44;;;;;;;;;;;;;;;11.13;100.00;101154.59;5024412;28;19960;-46
2022/10/26 04:46:12;;;;;;;;;;;;;;;11.18;100.00;101160.31;5013349;28;20257;-43
2022/10/26 04:48:37;;;;;;;;;;;;;;;11.20;100.00;101163.66;5033853;28;19917;-48
2022/10/26 04:51:02;;;;;;;;;;;;;;;11.23;100.00;101153.66;5030318;28;19923;-44
2022/10/26 04:53:28;;;;;;;;;;;;;;;11.26;100.00;101158.69;5030944;28;20438;-43
2022/10/26 04:55:56;;;;;;;;;;;;;;;11.28;100.00;101162.03;5031749;28;19917;-43
2022/10/26 04:58:22;;;;;;;;;;;;;;;11.31;100.00;101165.22;5002694;28;19919;-42
2022/10/26 05:00:47;;;;;;;;;;;;;;;11.33;100.00;101167.75;5030701;28;19917;-43
2022/10/26 05:03:13;;;;;;;;;;;;;;;11.33;100.00;101171.25;5015837;28;20318;-45
2022/10/26 05:05:38;;;;;;;;;;;;;;;11.35;100.00;101163.94;5033946;28;19913;-44
2022/10/26 05:08:03;;;;;;;;;;;;;;;11.36;100.00;101170.09;5032515;28;20000;-44
2022/10/26 05:10:28;;;;;;;;;;;;;;;11.36;100.00;101165.59;5015357;28;19920;-43
2022/10/26 05:12:54;;;;;;;;;;;;;;;11.36;100.00;101167.44;5034150;28;20019;-42
2022/10/26 05:15:20;;;;;;;;;;;;;;;11.36;100.00;101168.25;5033337;28;20272;-42
2022/10/26 05:17:46;;;;;;;;;;;;;;;11.35;100.00;101166.59;5013228;28;20036;-43
2022/10/26 05:20:14;;;;;;;;;;;;;;;11.35;100.00;101173.75;5019729;28;20343;-44
2022/10/26 05:22:39;;;;;;;;;;;;;;;11.34;100.00;101172.09;5035590;28;20063;-45
2022/10/26 05:25:05;;;;;;;;;;;;;;;11.31;100.00;101161.72;5027618;28;19976;-44
2022/10/26 05:27:30;;;;;;;;;;;;;;;11.28;100.00;101170.06;5034571;28;19964;-47
2022/10/26 05:29:55;;;;;;;;;;;;;;;11.25;100.00;101173.03;5031843;28;19955;-47
2022/10/26 05:32:21;;;;;;;;;;;;;;;11.20;100.00;101171.69;5026281;28;19913;-47
2022/10/26 05:34:46;;;;;;;;;;;;;;;11.20;100.00;101184.19;5036606;28;19928;-46
2022/10/26 05:37:11;;;;;;;;;;;;;;;11.18;100.00;101188.88;5034389;28;19917;-44
2022/10/26 05:39:36;;;;;;;;;;;;;;;11.14;100.00;101188.34;5017365;28;20499;-45
2022/10/26 05:42:01;;;;;;;;;;;;;;;11.11;100.00;101174.44;5023985;28;19913;-43
2022/10/26 05:44:26;;;;;;;;;;;;;;;11.07;100.00;101186.47;5033374;28;19943;-44
2022/10/26 05:46:52;;;;;;;;;;;;;;;11.04;100.00;101181.44;5033974;28;20327;-44
2022/10/26 05:49:17;;;;;;;;;;;;;;;11.04;100.00;101192.13;5037866;28;19959;-45
2022/10/26 05:51:42;;;;;;;;;;;;;;;11.06;100.00;101182.94;5036438;28;19962;-43
2022/10/26 05:54:07;;;;;;;;;;;;;;;11.08;100.00;101188.94;5038331;28;20279;-43
2022/10/26 05:56:36;;;;;;;;;;;;;;;11.12;100.00;101189.50;5034145;28;19920;-43
2022/10/26 05:59:02;;;;;;;;;;;;;;;11.17;100.00;101187.19;5037774;28;20300;-43
2022/10/26 06:01:34;;;;;;;;;;;;;;;11.18;100.00;101192.41;5036656;28;19924;-44
2022/10/26 06:04:06;;;;;;;;;;;;;;;11.22;100.00;101197.41;5037111;28;19913;-44
2022/10/26 06:06:36;;;;;;;;;;;;;;;11.25;100.00;101202.44;5036472;28;19923;-42
2022/10/26 06:09:02;;;;;;;;;;;;;;;11.26;100.00;101196.94;5037553;28;19913;-45
2022/10/26 06:11:27;;;;;;;;;;;;;;;11.30;100.00;101201.00;5024236;28;19947;-46
2022/10/26 06:13:53;;;;;;;;;;;;;;;11.32;100.00;101203.47;5027715;28;20622;-44
2022/10/26 06:16:18;;;;;;;;;;;;;;;11.33;100.00;101192.63;5022943;28;19906;-46
2022/10/26 06:18:46;;;;;;;;;;;;;;;11.35;100.00;101196.03;5030329;28;19921;-43
2022/10/26 06:21:30;;;;;;;;;;;;;;;11.35;100.00;101206.72;5025618;28;19923;-45
2022/10/26 06:24:18;;;;;;;;;;;;;;;11.36;100.00;101211.03;5037605;28;19959;-42
2022/10/26 06:26:43;;;;;;;;;;;;;;;11.36;100.00;101202.19;5024043;28;20376;-42
2022/10/26 06:29:19;;;;;;;;;;;;;;;11.37;100.00;101210.06;5030535;28;19979;-44
2022/10/26 06:31:45;;;;;;;;;;;;;;;11.35;100.00;101196.03;5037163;28;19958;-44
2022/10/26 06:34:11;;;;;;;;;;;;;;;11.35;100.00;101197.81;5036937;28;19913;-44
2022/10/26 06:36:37;;;;;;;;;;;;;;;11.31;100.00;101191.13;5027442;28;20395;-45
2022/10/26 06:39:07;;;;;;;;;;;;;;;11.30;100.00;101201.00;5019795;28;20058;-43
2022/10/26 06:41:34;;;;;;;;;;;;;;;11.29;100.00;101201.16;5013733;28;20030;-42
2022/10/26 06:44:01;;;;;;;;;;;;;;;11.28;100.00;101197.63;5036249;28;19921;-44
2022/10/26 06:46:26;;;;;;;;;;;;;;;11.28;100.00;101199.47;5030798;28;19982;-46
2022/10/26 06:48:54;;;;;;;;;;;;;;;11.29;100.00;101195.81;5031040;28;20363;-44
2022/10/26 06:51:20;;;;;;;;;;;;;;;11.29;100.00;101187.78;5031732;28;19996;-46
2022/10/26 06:53:53;;;;;;;;;;;;;;;11.30;100.00;101198.31;5036233;28;20007;-46
2022/10/26 06:56:18;;;;;;;;;;;;;;;11.32;100.00;101184.78;5025587;28;20352;-47
2022/10/26 06:58:44;;;;;;;;;;;;;;;11.34;100.00;101183.63;5027739;28;19942;-44
2022/10/26 07:01:10;;;;;;;;;;;;;;;11.33;100.00;101187.28;5030399;28;19975;-43
2022/10/26 07:03:36;;;;;;;;;;;;;;;11.36;100.00;101196.84;5035922;28;20304;-45
2022/10/26 07:06:01;;;;;;;;;;;;;;;11.35;100.00;101193.34;5029718;28;19975;-43
2022/10/26 07:08:26;;;;;;;;;;;;;;;11.38;100.00;101194.84;5030120;28;19913;-44
2022/10/26 07:10:51;;;;;;;;;;;;;;;11.39;100.00;101193.88;5025698;28;20621;-45
2022/10/26 07:13:16;;;;;;;;;;;;;;;11.39;100.00;101196.53;5036015;28;19913;-44
2022/10/26 07:15:42;;;;;;;;;;;;;;;11.42;100.00;101204.22;5035871;28;20422;-44
2022/10/26 07:18:08;;;;;;;;;;;;;;;11.44;100.00;101212.94;5036290;28;19956;-42
2022/10/26 07:20:37;;;;;;;;;;;;;;;11.46;100.00;101216.28;5030383;28;19920;-41
2022/10/26 07:23:05;;;;;;;;;;;;;;;11.50;100.00;101214.97;5036561;28;19912;-45
2022/10/26 07:25:31;;;;;;;;;;;;;;;11.55;100.00;101227.88;5034095;28;19923;-44
2022/10/26 07:27:57;;;;;;;;;;;;;;;11.60;100.00;101230.91;5028884;28;20015;-44
2022/10/26 07:30:22;;;;;;;;;;;;;;;11.64;100.00;101236.78;5029777;28;19919;-43
2022/10/26 07:32:47;;;;;;;;;;;;;;;11.67;100.00;101241.81;5026962;28;19913;-43
2022/10/26 07:35:13;;;;;;;;;;;;;;;11.68;100.00;101235.50;5032648;28;19935;-43
2022/10/26 07:37:38;;;;;;;;;;;;;;;11.72;100.00;101239.50;5036482;28;19912;-44
2022/10/26 07:40:04;;;;;;;;;;;;;;;11.73;100.00;101231.34;5034105;28;19947;-43
2022/10/26 07:42:29;;;;;;;;;;;;;;;11.77;100.00;101226.50;5034761;28;19913;-47
2022/10/26 07:44:55;;;;;;;;;;;;;;;11.81;100.00;101241.22;5035649;28;19924;-44
2022/10/26 07:47:20;;;;;;;;;;;;;;;11.86;100.00;101238.06;5030818;28;19932;-43
2022/10/26 07:49:45;;;;;;;;;;;;;;;11.91;100.00;101247.34;5035166;28;19913;-43
2022/10/26 07:52:10;;;;;;;;;;;;;;;12.00;100.00;101258.94;5032277;28;19932;-43
2022/10/26 07:54:35;;;;;;;;;;;;;;;12.19;100.00;101268.56;5035380;28;19913;-45
2022/10/26 07:57:01;;;;;;;;;;;;;;;12.39;100.00;101281.66;5034888;28;19913;-43
2022/10/26 07:59:27;;;;;;;;;;;;;;;12.55;100.00;101275.53;5036021;28;20527;-43
2022/10/26 08:01:52;;;;;;;;;;;;;;;12.59;100.00;101267.00;5034304;28;19920;-44
2022/10/26 08:04:17;;;;;;;;;;;;;;;12.60;100.00;101257.94;5031784;28;20457;-45
2022/10/26 08:06:42;;;;;;;;;;;;;;;12.59;100.00;101264.34;5035693;28;19917;-43
2022/10/26 08:09:07;;;;;;;;;;;;;;;12.62;100.00;101279.22;5034797;28;19916;-45
2022/10/26 08:11:35;;;;;;;;;;;;;;;12.67;100.00;101275.03;5033829;28;19932;-45
2022/10/26 08:14:01;;;;;;;;;;;;;;;12.78;100.00;101279.28;5036186;28;20328;-42
2022/10/26 08:16:26;;;;;;;;;;;;;;;13.02;100.00;101285.66;5034840;28;19920;-45
2022/10/26 08:18:51;;;;;;;;;;;;;;;13.27;100.00;101286.50;5035431;28;19917;-44
2022/10/26 08:21:16;;;;;;;;;;;;;;;13.47;100.00;101278.97;5034754;28;19917;-46
2022/10/26 08:23:42;;;;;;;;;;;;;;;13.61;100.00;101280.97;5029875;28;19920;-43
2022/10/26 08:26:10;;;;;;;;;;;;;;;13.67;100.00;101284.81;5015695;28;19917;-46
2022/10/26 08:28:35;;;;;;;;;;;;;;;13.67;100.00;101282.13;5034254;28;19996;-45
2022/10/26 08:31:00;;;;;;;;;;;;;;;13.72;100.00;101281.63;5033092;28;20374;-47
2022/10/26 08:33:25;;;;;;;;;;;;;;;13.79;100.00;101286.13;5033642;28;19963;-45
2022/10/26 08:35:57;;;;;;;;;;;;;;;13.84;100.00;101285.63;5024528;28;20027;-46
2022/10/26 08:38:22;;;;;;;;;;;;;;;13.92;100.00;101293.66;5028136;28;19939;-46
2022/10/26 08:40:48;;;;;;;;;;;;;;;14.02;100.00;101298.84;5034326;28;19924;-46
2022/10/26 08:43:33;;;;;;;;;;;;;;;14.13;100.00;101297.63;5034511;28;20173;-44
2022/10/26 08:46:01;;;;;;;;;;;;;;;14.24;100.00;101299.06;5034008;28;19913;-45
2022/10/26 08:48:29;;;;;;;;;;;;;;;14.35;100.00;101293.34;5035145;28;19913;-46
2022/10/26 08:50:59;;;;;;;;;;;;;;;14.47;100.00;101304.53;5034049;28;19913;-45
2022/10/26 08:53:25;;;;;;;;;;;;;;;14.58;100.00;101295.22;5035112;28;20426;-43
2022/10/26 08:55:53;;;;;;;;;;;;;;;14.68;100.00;101291.34;5032799;28;19928;-44
2022/10/26 08:58:21;;;;;;;;;;;;;;;14.78;100.00;101283.03;5034906;28;19916;-42
2022/10/26 09:00:48;;;;;;;;;;;;;;;14.87;100.00;101292.72;5033830;28;19986;-43
2022/10/26 09:03:14;;;;;;;;;;;;;;;14.95;100.00;101277.56;5034494;28;19916;-47
2022/10/26 09:05:48;;;;;;;;;;;;;;;15.05;100.00;101267.38;5024887;28;19916;-46
2022/10/26 09:08:21;;;;;;;;;;;;;;;15.14;100.00;101278.91;5022877;28;20320;-45
2022/10/26 09:11:01;;;;;;;;;;;;;;;15.22;100.00;101287.78;5033361;28;20498;-45
2022/10/26 09:13:45;;;;;;;;;;;;;;;15.37;100.00;101292.34;5034180;28;19982;-43
2022/10/26 09:16:21;;;;;;;;;;;;;;;15.46;100.00;101296.63;5034483;28;20330;-44
2022/10/26 09:19:05;;;;;;;;;;;;;;;15.57;100.00;101315.03;5017207;28;19924;-42
2022/10/26 09:21:33;;;;;;;;;;;;;;;15.70;100.00;101313.56;5035115;28;19920;-44
2022/10/26 09:24:01;;;;;;;;;;;;;;;15.80;100.00;101311.47;5039385;28;20004;-46
2022/10/26 09:26:32;;;;;;;;;;;;;;;15.90;100.00;101311.22;5036341;28;19982;-43
2022/10/26 09:29:00;;;;;;;;;;;;;;;16.05;100.00;101328.22;5038514;28;19912;-45
2022/10/26 09:31:26;;;;;;;;;;;;;;;16.21;100.00;101346.09;5037738;28;20419;-44
2022/10/26 09:33:52;;;;;;;;;;;;;;;16.33;100.00;101349.16;5038796;28;19966;-43
2022/10/26 09:36:18;;;;;;;;;;;;;;;16.47;100.00;101340.19;5037424;28;19917;-47
2022/10/26 09:38:49;;;;;;;;;;;;;;;16.60;100.00;101350.31;5037547;28;19917;-46
2022/10/26 09:41:28;;;;;;;;;;;;;;;16.72;100.00;101362.28;5036946;28;19916;-45
2022/10/26 09:43:57;;;;;;;;;;;;;;;16.82;100.00;101355.75;5023210;28;19956;-45
2022/10/26 09:46:29;;;;;;;;;;;;;;;16.91;100.00;101354.66;5034746;28;19917;-43
2022/10/26 09:48:57;;;;;;;;;;;;;;;16.93;100.00;101355.28;5038070;28;19917;-44
2022/10/26 09:51:22;;;;;;;;;;;;;;;16.90;100.00;101363.75;5018519;28;19919;-44
2022/10/26 09:53:48;;;;;;;;;;;;;;;16.89;100.00;101367.50;5031838;28;19996;-44
2022/10/26 09:56:14;;;;;;;;;;;;;;;16.85;100.00;101367.03;5035086;28;19917;-43
2022/10/26 09:58:41;;;;;;;;;;;;;;;16.87;100.00;101373.09;5036524;28;19937;-45
2022/10/26 10:01:19;;;;;;;;;;;;;;;16.98;100.00;101371.75;5017651;28;19960;-43
2022/10/26 10:03:44;;;;;;;;;;;;;;;17.07;100.00;101370.59;5035850;28;20326;-43
2022/10/26 10:06:14;;;;;;;;;;;;;;;17.18;100.00;101373.84;5015927;28;19925;-43
2022/10/26 10:08:40;;;;;;;;;;;;;;;17.27;100.00;101380.78;5037779;28;20292;-43
2022/10/26 10:11:07;;;;;;;;;;;;;;;17.34;100.00;101390.63;5026368;28;20345;-46
2022/10/26 10:13:34;;;;;;;;;;;;;;;17.39;100.00;101400.00;5034321;28;20209;-43
2022/10/26 10:15:59;;;;;;;;;;;;;;;17.40;100.00;101397.09;5026512;28;19928;-43
2022/10/26 10:18:24;;;;;;;;;;;;;;;17.49;100.00;101395.94;5026259;28;19971;-42
2022/10/26 10:20:51;;;;;;;;;;;;;;;17.61;100.00;101404.34;5032956;28;20000;-47
2022/10/26 10:23:27;;;;;;;;;;;;;;;17.68;100.00;101410.69;5027781;28;19917;-46
2022/10/26 10:26:01;;;;;;;;;;;;;;;17.75;100.00;101417.97;5020140;28;19917;-47
2022/10/26 10:28:27;;;;;;;;;;;;;;;17.84;100.00;101411.44;5035858;28;19923;-44
2022/10/26 10:30:58;;;;;;;;;;;;;;;17.97;100.00;101421.53;5033036;28;20275;-45
2022/10/26 10:33:30;;;;;;;;;;;;;;;18.12;100.00;101432.25;5018727;28;19958;-45
2022/10/26 10:35:56;;;;;;;;;;;;;;;18.15;100.00;101438.09;5035459;28;20027;-48
2022/10/26 10:38:21;;;;;;;;;;;;;;;18.24;100.00;101434.22;5036754;28;19917;-48
2022/10/26 10:40:52;;;;;;;;;;;;;;;18.34;100.00;101441.13;5032651;28;19921;-43
2022/10/26 10:43:18;;;;;;;;;;;;;;;18.45;100.00;101440.59;5037406;28;19923;-48
2022/10/26 10:45:49;;;;;;;;;;;;;;;18.55;100.00;101443.75;5031490;28;19914;-46
2022/10/26 10:48:22;;;;;;;;;;;;;;;18.48;100.00;101452.88;5037073;28;20039;-45
2022/10/26 10:50:52;;;;;;;;;;;;;;;18.51;100.00;101453.28;5035973;28;20425;-43
2022/10/26 10:53:22;;;;;;;;;;;;;;;18.63;100.00;101453.56;5036168;28;19924;-43
2022/10/26 10:56:14;;;;;;;;;;;;;;;18.80;100.00;101457.66;5035567;28;19959;-44
2022/10/26 10:58:45;;;;;;;;;;;;;;;18.83;100.00;101464.53;5002956;28;20464;-44
2022/10/26 11:01:12;;;;;;;;;;;;;;;18.95;100.00;101459.38;5026505;28;19975;-43
2022/10/26 11:04:05;;;;;;;;;;;;;;;19.07;100.00;101470.47;5028984;28;20351;-47
2022/10/26 11:06:33;;;;;;;;;;;;;;;19.08;100.00;101483.00;5026895;28;19916;-45
2022/10/26 11:09:04;;;;;;;;;;;;;;;19.04;100.00;101482.53;5037279;28;20366;-48
2022/10/26 11:11:37;;;;;;;;;;;;;;;19.08;100.00;101488.41;5035391;28;19921;-43
2022/10/26 11:14:12;;;;;;;;;;;;;;;19.08;100.00;101485.69;5018399;28;19920;-45
2022/10/26 11:16:43;;;;;;;;;;;;;;;19.06;100.00;101487.75;5036107;28;19916;-44
2022/10/26 11:19:21;;;;;;;;;;;;;;;18.93;100.00;101494.78;5033094;28;19971;-46
2022/10/26 11:21:49;;;;;;;;;;;;;;;18.78;100.00;101494.88;5026022;28;20384;-45
2022/10/26 11:24:18;;;;;;;;;;;;;;;18.76;100.00;101496.94;5017570;28;19913;-44
2022/10/26 11:26:51;;;;;;;;;;;;;;;18.86;100.00;101504.75;5033118;28;19917;-48
2022/10/26 11:29:31;;;;;;;;;;;;;;;19.07;100.00;101516.50;5036647;28;19959;-44
2022/10/26 11:32:05;;;;;;;;;;;;;;;19.19;100.00;101507.63;5025797;28;20190;-45
2022/10/26 11:34:36;;;;;;;;;;;;;;;19.28;100.00;101512.84;5014054;28;19929;-43
2022/10/26 11:37:04;;;;;;;;;;;;;;;19.23;100.00;101508.03;5034604;28;20396;-44
2022/10/26 11:39:43;;;;;;;;;;;;;;;19.22;100.00;101500.94;5036006;28;19912;-46
2022/10/26 11:42:14;;;;;;;;;;;;;;;19.26;100.00;101496.78;5035189;28;20169;-44
2022/10/26 11:44:47;;;;;;;;;;;;;;;19.23;100.00;101497.22;5035939;28;20290;-44
2022/10/26 11:47:14;;;;;;;;;;;;;;;19.16;100.00;101499.88;5035442;28;19912;-45
2022/10/26 11:49:53;;;;;;;;;;;;;;;19.06;100.00;101499.44;5035706;28;20389;-43
2022/10/26 11:52:21;;;;;;;;;;;;;;;19.06;100.00;101501.28;5035935;28;19993;-45
2022/10/26 11:54:54;;;;;;;;;;;;;;;19.18;100.00;101508.63;5035857;28;20279;-46
2022/10/26 11:57:20;;;;;;;;;;;;;;;19.33;100.00;101507.63;5035121;28;20030;-44
2022/10/26 11:59:58;;;;;;;;;;;;;;;19.44;100.00;101503.53;5035138;28;19998;-44
2022/10/26 12:02:24;;;;;;;;;;;;;;;19.68;100.00;101502.13;5032026;28;20417;-44
2022/10/26 12:05:09;;;;;;;;;;;;;;;19.96;100.00;101515.53;5034237;28;19916;-44
2022/10/26 12:07:37;;;;;;;;;;;;;;;20.05;100.00;101513.47;5028085;28;19936;-48
2022/10/26 12:10:05;;;;;;;;;;;;;;;20.26;100.00;101509.69;5033867;28;19913;-46
2022/10/26 12:12:44;;;;;;;;;;;;;;;20.59;100.00;101506.13;5029689;28;19931;-47
2022/10/26 12:15:29;;;;;;;;;;;;;;;20.88;100.00;101523.03;5022505;28;19940;-45
2022/10/26 12:18:01;;;;;;;;;;;;;;;21.11;100.00;101533.38;5035118;28;19956;-46
2022/10/26 12:20:29;;;;;;;;;;;;;;;21.35;100.00;101529.94;5016399;28;19917;-45
2022/10/26 12:22:54;;;;;;;;;;;;;;;21.39;96.16;101538.50;5035464;28;20050;-47
2022/10/26 12:25:20;;;;;;;;;;;;;;;21.50;100.00;101537.81;5034643;28;19909;-47
2022/10/26 12:27:45;;;;;;;;;;;;;;;21.61;98.40;101528.16;5033538;28;20418;-45
2022/10/26 12:30:11;;;;;;;;;;;;;;;21.79;95.37;101539.13;5034743;28;20076;-48
2022/10/26 12:32:36;;;;;;;;;;;;;;;21.80;95.46;101542.69;5018498;28;20429;-44